sensor_id;sensor_type;location;lat;lon;timestamp;P1;durP1;ratioP1;P2;durP2;ratioP2
17251;SDS011;8742;51.716;8.790;2023-03-14T00:01:18;3.40;;;1.27;;
17251;SDS011;8742;51.716;8.790;2023-03-14T00:03:46;8.13;;;1.50;;
17251;SDS011;8742;51.716;8.790;2023-03-14T00:06:13;3.97;;;1.47;;
17251;SDS011;8742;51.716;8.790;2023-03-14T00:08:42;3.53;;;1.37;;
17251;SDS011;8742;51.716;8.790;2023-03-14T00:11:10;3.73;;;1.00;;
17251;SDS011;8742;51.716;8.790;2023-03-14T00:13:38;4.83;;;1.50;;
17251;SDS011;8742;51.716;8.790;2023-03-14T00:16:07;4.43;;;2.30;;
17251;SDS011;8742;51.716;8.790;2023-03-14T00:18:35;3.93;;;1.57;;
17251;SDS011;8742;51.716;8.790;2023-03-14T00:21:03;2.57;;;1.77;;
17251;SDS011;8742;51.716;8.790;2023-03-14T00:23:32;4.63;;;1.50;;
17251;SDS011;8742;51.716;8.790;2023-03-14T00:26:02;11.83;;;5.40;;
17251;SDS011;8742;51.716;8.790;2023-03-14T00:28:30;4.40;;;1.03;;
17251;SDS011;8742;51.716;8.790;2023-03-14T00:30:57;5.17;;;1.63;;
17251;SDS011;8742;51.716;8.790;2023-03-14T00:33:24;2.50;;;1.27;;
17251;SDS011;8742;51.716;8.790;2023-03-14T00:35:54;2.50;;;1.03;;
17251;SDS011;8742;51.716;8.790;2023-03-14T00:38:22;3.30;;;1.20;;
17251;SDS011;8742;51.716;8.790;2023-03-14T00:40:49;3.37;;;1.30;;
17251;SDS011;8742;51.716;8.790;2023-03-14T00:43:17;6.37;;;1.50;;
17251;SDS011;8742;51.716;8.790;2023-03-14T00:45:46;5.57;;;1.70;;
17251;SDS011;8742;51.716;8.790;2023-03-14T00:48:13;4.47;;;1.30;;
17251;SDS011;8742;51.716;8.790;2023-03-14T00:50:40;5.53;;;2.40;;
17251;SDS011;8742;51.716;8.790;2023-03-14T00:53:07;3.13;;;1.60;;
17251;SDS011;8742;51.716;8.790;2023-03-14T00:55:35;2.67;;;1.17;;
17251;SDS011;8742;51.716;8.790;2023-03-14T00:58:03;5.53;;;1.30;;
17251;SDS011;8742;51.716;8.790;2023-03-14T01:00:31;1.40;;;1.00;;
17251;SDS011;8742;51.716;8.790;2023-03-14T01:02:58;4.03;;;1.27;;
17251;SDS011;8742;51.716;8.790;2023-03-14T01:05:25;3.97;;;1.63;;
17251;SDS011;8742;51.716;8.790;2023-03-14T01:07:52;4.93;;;1.63;;
17251;SDS011;8742;51.716;8.790;2023-03-14T01:10:18;2.93;;;1.40;;
17251;SDS011;8742;51.716;8.790;2023-03-14T01:12:45;11.97;;;1.67;;
17251;SDS011;8742;51.716;8.790;2023-03-14T01:15:12;7.00;;;1.73;;
17251;SDS011;8742;51.716;8.790;2023-03-14T01:17:40;2.67;;;0.77;;
17251;SDS011;8742;51.716;8.790;2023-03-14T01:20:09;6.57;;;1.40;;
17251;SDS011;8742;51.716;8.790;2023-03-14T01:22:38;5.07;;;1.27;;
17251;SDS011;8742;51.716;8.790;2023-03-14T01:25:06;1.90;;;0.90;;
17251;SDS011;8742;51.716;8.790;2023-03-14T01:27:33;5.00;;;1.63;;
17251;SDS011;8742;51.716;8.790;2023-03-14T01:30:00;6.70;;;1.37;;
17251;SDS011;8742;51.716;8.790;2023-03-14T01:32:29;5.37;;;1.60;;
17251;SDS011;8742;51.716;8.790;2023-03-14T01:34:57;4.10;;;1.40;;
17251;SDS011;8742;51.716;8.790;2023-03-14T01:37:24;3.10;;;1.53;;
17251;SDS011;8742;51.716;8.790;2023-03-14T01:39:51;3.77;;;0.80;;
17251;SDS011;8742;51.716;8.790;2023-03-14T01:42:18;2.40;;;1.50;;
17251;SDS011;8742;51.716;8.790;2023-03-14T01:44:48;3.40;;;1.30;;
17251;SDS011;8742;51.716;8.790;2023-03-14T01:47:16;6.80;;;2.13;;
17251;SDS011;8742;51.716;8.790;2023-03-14T01:49:43;3.13;;;1.50;;
17251;SDS011;8742;51.716;8.790;2023-03-14T01:52:15;6.57;;;2.33;;
17251;SDS011;8742;51.716;8.790;2023-03-14T01:54:45;4.83;;;1.00;;
17251;SDS011;8742;51.716;8.790;2023-03-14T01:57:15;6.30;;;1.30;;
17251;SDS011;8742;51.716;8.790;2023-03-14T01:59:46;2.23;;;1.20;;
17251;SDS011;8742;51.716;8.790;2023-03-14T02:02:17;8.30;;;1.70;;
17251;SDS011;8742;51.716;8.790;2023-03-14T02:04:45;3.93;;;1.47;;
17251;SDS011;8742;51.716;8.790;2023-03-14T02:07:14;3.73;;;1.33;;
17251;SDS011;8742;51.716;8.790;2023-03-14T02:09:43;3.07;;;1.40;;
17251;SDS011;8742;51.716;8.790;2023-03-14T02:12:11;4.77;;;1.33;;
17251;SDS011;8742;51.716;8.790;2023-03-14T02:14:40;6.70;;;1.67;;
17251;SDS011;8742;51.716;8.790;2023-03-14T02:17:13;3.97;;;1.50;;
17251;SDS011;8742;51.716;8.790;2023-03-14T02:19:50;6.10;;;1.63;;
17251;SDS011;8742;51.716;8.790;2023-03-14T02:22:31;2.67;;;1.43;;
17251;SDS011;8742;51.716;8.790;2023-03-14T02:25:01;5.40;;;1.30;;
17251;SDS011;8742;51.716;8.790;2023-03-14T02:27:35;1.60;;;0.37;;
17251;SDS011;8742;51.716;8.790;2023-03-14T02:30:03;2.60;;;1.17;;
17251;SDS011;8742;51.716;8.790;2023-03-14T02:32:34;4.47;;;1.70;;
17251;SDS011;8742;51.716;8.790;2023-03-14T02:35:05;33.60;;;16.93;;
17251;SDS011;8742;51.716;8.790;2023-03-14T02:37:36;10.73;;;2.73;;
17251;SDS011;8742;51.716;8.790;2023-03-14T02:40:06;3.03;;;1.20;;
17251;SDS011;8742;51.716;8.790;2023-03-14T02:42:35;2.97;;;1.17;;
17251;SDS011;8742;51.716;8.790;2023-03-14T02:48:05;5.13;;;2.23;;
17251;SDS011;8742;51.716;8.790;2023-03-14T02:50:35;6.03;;;1.90;;
17251;SDS011;8742;51.716;8.790;2023-03-14T02:53:01;5.30;;;1.70;;
17251;SDS011;8742;51.716;8.790;2023-03-14T02:55:28;3.97;;;2.17;;
17251;SDS011;8742;51.716;8.790;2023-03-14T02:57:56;3.60;;;1.60;;
17251;SDS011;8742;51.716;8.790;2023-03-14T03:00:23;5.57;;;1.10;;
17251;SDS011;8742;51.716;8.790;2023-03-14T03:02:50;2.20;;;1.40;;
17251;SDS011;8742;51.716;8.790;2023-03-14T03:05:17;2.87;;;1.17;;
17251;SDS011;8742;51.716;8.790;2023-03-14T03:07:44;3.20;;;1.07;;
17251;SDS011;8742;51.716;8.790;2023-03-14T03:10:11;6.60;;;3.07;;
17251;SDS011;8742;51.716;8.790;2023-03-14T03:12:38;6.03;;;0.70;;
17251;SDS011;8742;51.716;8.790;2023-03-14T03:15:06;1.40;;;0.50;;
17251;SDS011;8742;51.716;8.790;2023-03-14T03:17:34;2.10;;;0.83;;
17251;SDS011;8742;51.716;8.790;2023-03-14T03:20:00;2.77;;;0.60;;
17251;SDS011;8742;51.716;8.790;2023-03-14T03:22:28;2.70;;;1.30;;
17251;SDS011;8742;51.716;8.790;2023-03-14T03:24:55;4.10;;;1.73;;
17251;SDS011;8742;51.716;8.790;2023-03-14T03:27:22;3.60;;;2.00;;
17251;SDS011;8742;51.716;8.790;2023-03-14T03:29:48;1.23;;;0.80;;
17251;SDS011;8742;51.716;8.790;2023-03-14T03:32:17;1.43;;;0.80;;
17251;SDS011;8742;51.716;8.790;2023-03-14T03:34:43;1.70;;;0.50;;
17251;SDS011;8742;51.716;8.790;2023-03-14T03:37:10;3.80;;;0.90;;
17251;SDS011;8742;51.716;8.790;2023-03-14T03:39:37;1.23;;;0.47;;
17251;SDS011;8742;51.716;8.790;2023-03-14T03:42:04;1.53;;;0.40;;
17251;SDS011;8742;51.716;8.790;2023-03-14T03:44:31;2.17;;;0.50;;
17251;SDS011;8742;51.716;8.790;2023-03-14T03:46:57;4.87;;;0.43;;
17251;SDS011;8742;51.716;8.790;2023-03-14T03:49:29;1.87;;;0.60;;
17251;SDS011;8742;51.716;8.790;2023-03-14T03:51:57;3.80;;;0.70;;
17251;SDS011;8742;51.716;8.790;2023-03-14T03:54:24;2.90;;;0.53;;
17251;SDS011;8742;51.716;8.790;2023-03-14T03:56:51;0.40;;;0.40;;
17251;SDS011;8742;51.716;8.790;2023-03-14T03:59:18;0.67;;;0.60;;
17251;SDS011;8742;51.716;8.790;2023-03-14T04:01:45;1.83;;;0.73;;
17251;SDS011;8742;51.716;8.790;2023-03-14T04:04:12;7.07;;;3.80;;
17251;SDS011;8742;51.716;8.790;2023-03-14T04:06:41;5.20;;;1.20;;
17251;SDS011;8742;51.716;8.790;2023-03-14T04:09:07;1.77;;;0.93;;
17251;SDS011;8742;51.716;8.790;2023-03-14T04:11:35;4.90;;;3.73;;
17251;SDS011;8742;51.716;8.790;2023-03-14T04:14:02;3.17;;;1.53;;
17251;SDS011;8742;51.716;8.790;2023-03-14T04:16:29;2.77;;;1.20;;
17251;SDS011;8742;51.716;8.790;2023-03-14T04:18:56;1.07;;;0.97;;
17251;SDS011;8742;51.716;8.790;2023-03-14T04:21:23;2.83;;;1.17;;
17251;SDS011;8742;51.716;8.790;2023-03-14T04:23:51;2.17;;;0.67;;
17251;SDS011;8742;51.716;8.790;2023-03-14T04:26:18;1.77;;;1.20;;
17251;SDS011;8742;51.716;8.790;2023-03-14T04:28:45;10.30;;;4.20;;
17251;SDS011;8742;51.716;8.790;2023-03-14T04:31:13;8.17;;;4.23;;
17251;SDS011;8742;51.716;8.790;2023-03-14T04:33:41;2.77;;;0.87;;
17251;SDS011;8742;51.716;8.790;2023-03-14T04:36:08;2.83;;;1.60;;
17251;SDS011;8742;51.716;8.790;2023-03-14T04:38:35;5.40;;;1.27;;
17251;SDS011;8742;51.716;8.790;2023-03-14T04:41:03;4.77;;;1.30;;
17251;SDS011;8742;51.716;8.790;2023-03-14T04:43:31;6.87;;;2.77;;
17251;SDS011;8742;51.716;8.790;2023-03-14T04:45:57;3.37;;;0.97;;
17251;SDS011;8742;51.716;8.790;2023-03-14T04:48:24;4.00;;;0.80;;
17251;SDS011;8742;51.716;8.790;2023-03-14T04:50:51;1.83;;;0.70;;
17251;SDS011;8742;51.716;8.790;2023-03-14T04:53:19;2.70;;;0.80;;
17251;SDS011;8742;51.716;8.790;2023-03-14T04:55:47;1.00;;;0.73;;
17251;SDS011;8742;51.716;8.790;2023-03-14T04:58:16;2.63;;;0.70;;
17251;SDS011;8742;51.716;8.790;2023-03-14T05:00:43;0.80;;;0.50;;
17251;SDS011;8742;51.716;8.790;2023-03-14T05:03:10;2.13;;;1.27;;
17251;SDS011;8742;51.716;8.790;2023-03-14T05:05:36;3.60;;;0.80;;
17251;SDS011;8742;51.716;8.790;2023-03-14T05:08:03;2.20;;;0.93;;
17251;SDS011;8742;51.716;8.790;2023-03-14T05:10:30;2.60;;;0.80;;
17251;SDS011;8742;51.716;8.790;2023-03-14T05:12:57;2.80;;;0.77;;
17251;SDS011;8742;51.716;8.790;2023-03-14T05:15:25;1.70;;;0.40;;
17251;SDS011;8742;51.716;8.790;2023-03-14T05:17:52;2.40;;;1.10;;
17251;SDS011;8742;51.716;8.790;2023-03-14T05:20:19;1.37;;;0.70;;
17251;SDS011;8742;51.716;8.790;2023-03-14T05:22:46;3.67;;;2.73;;
17251;SDS011;8742;51.716;8.790;2023-03-14T05:25:13;3.67;;;1.67;;
17251;SDS011;8742;51.716;8.790;2023-03-14T05:27:40;6.70;;;1.27;;
17251;SDS011;8742;51.716;8.790;2023-03-14T05:30:09;4.27;;;2.43;;
17251;SDS011;8742;51.716;8.790;2023-03-14T05:32:38;4.87;;;2.23;;
17251;SDS011;8742;51.716;8.790;2023-03-14T05:35:05;8.13;;;1.80;;
17251;SDS011;8742;51.716;8.790;2023-03-14T05:37:32;5.43;;;2.30;;
17251;SDS011;8742;51.716;8.790;2023-03-14T05:39:59;6.73;;;3.67;;
17251;SDS011;8742;51.716;8.790;2023-03-14T05:42:26;3.90;;;1.63;;
17251;SDS011;8742;51.716;8.790;2023-03-14T05:44:53;3.63;;;1.47;;
17251;SDS011;8742;51.716;8.790;2023-03-14T05:47:19;9.73;;;1.83;;
17251;SDS011;8742;51.716;8.790;2023-03-14T05:49:48;8.50;;;4.63;;
17251;SDS011;8742;51.716;8.790;2023-03-14T05:52:14;4.43;;;2.37;;
17251;SDS011;8742;51.716;8.790;2023-03-14T05:54:41;7.60;;;2.40;;
17251;SDS011;8742;51.716;8.790;2023-03-14T05:57:08;8.00;;;2.03;;
17251;SDS011;8742;51.716;8.790;2023-03-14T05:59:35;7.27;;;2.60;;
17251;SDS011;8742;51.716;8.790;2023-03-14T06:02:02;6.43;;;1.80;;
17251;SDS011;8742;51.716;8.790;2023-03-14T06:04:29;6.37;;;1.60;;
17251;SDS011;8742;51.716;8.790;2023-03-14T06:06:57;7.57;;;2.10;;
17251;SDS011;8742;51.716;8.790;2023-03-14T06:09:24;11.67;;;3.13;;
17251;SDS011;8742;51.716;8.790;2023-03-14T06:11:51;5.60;;;2.10;;
17251;SDS011;8742;51.716;8.790;2023-03-14T06:14:17;11.03;;;4.30;;
17251;SDS011;8742;51.716;8.790;2023-03-14T06:16:44;11.33;;;2.57;;
17251;SDS011;8742;51.716;8.790;2023-03-14T06:19:13;4.63;;;2.43;;
17251;SDS011;8742;51.716;8.790;2023-03-14T06:21:39;6.17;;;2.17;;
17251;SDS011;8742;51.716;8.790;2023-03-14T06:24:08;5.60;;;1.80;;
17251;SDS011;8742;51.716;8.790;2023-03-14T06:26:34;4.17;;;1.33;;
17251;SDS011;8742;51.716;8.790;2023-03-14T06:29:01;9.67;;;2.47;;
17251;SDS011;8742;51.716;8.790;2023-03-14T06:31:28;8.13;;;1.97;;
17251;SDS011;8742;51.716;8.790;2023-03-14T06:33:55;4.93;;;1.93;;
17251;SDS011;8742;51.716;8.790;2023-03-14T06:36:22;3.97;;;1.53;;
17251;SDS011;8742;51.716;8.790;2023-03-14T06:38:50;5.07;;;1.83;;
17251;SDS011;8742;51.716;8.790;2023-03-14T06:41:18;10.37;;;2.37;;
17251;SDS011;8742;51.716;8.790;2023-03-14T06:43:48;6.57;;;2.50;;
17251;SDS011;8742;51.716;8.790;2023-03-14T06:46:15;4.03;;;1.63;;
17251;SDS011;8742;51.716;8.790;2023-03-14T06:48:42;4.93;;;2.13;;
17251;SDS011;8742;51.716;8.790;2023-03-14T06:51:09;9.03;;;3.50;;
17251;SDS011;8742;51.716;8.790;2023-03-14T06:53:36;7.53;;;3.77;;
17251;SDS011;8742;51.716;8.790;2023-03-14T06:56:03;4.27;;;2.50;;
17251;SDS011;8742;51.716;8.790;2023-03-14T06:58:31;6.60;;;3.07;;
17251;SDS011;8742;51.716;8.790;2023-03-14T07:00:58;2.57;;;1.27;;
17251;SDS011;8742;51.716;8.790;2023-03-14T07:03:25;5.20;;;1.40;;
17251;SDS011;8742;51.716;8.790;2023-03-14T07:05:52;2.13;;;1.03;;
17251;SDS011;8742;51.716;8.790;2023-03-14T07:08:19;7.23;;;1.70;;
17251;SDS011;8742;51.716;8.790;2023-03-14T07:10:46;2.03;;;0.87;;
17251;SDS011;8742;51.716;8.790;2023-03-14T07:13:13;4.10;;;1.10;;
17251;SDS011;8742;51.716;8.790;2023-03-14T07:15:41;3.87;;;0.60;;
17251;SDS011;8742;51.716;8.790;2023-03-14T07:18:08;2.57;;;0.77;;
17251;SDS011;8742;51.716;8.790;2023-03-14T07:20:34;2.33;;;0.60;;
17251;SDS011;8742;51.716;8.790;2023-03-14T07:23:01;1.73;;;0.37;;
17251;SDS011;8742;51.716;8.790;2023-03-14T07:25:28;0.40;;;0.37;;
17251;SDS011;8742;51.716;8.790;2023-03-14T07:27:55;1.60;;;1.20;;
17251;SDS011;8742;51.716;8.790;2023-03-14T07:30:22;1.70;;;0.67;;
17251;SDS011;8742;51.716;8.790;2023-03-14T07:32:50;1.07;;;0.63;;
17251;SDS011;8742;51.716;8.790;2023-03-14T07:35:17;1.67;;;0.67;;
17251;SDS011;8742;51.716;8.790;2023-03-14T07:37:44;1.13;;;0.60;;
17251;SDS011;8742;51.716;8.790;2023-03-14T07:40:11;1.33;;;1.03;;
17251;SDS011;8742;51.716;8.790;2023-03-14T07:42:41;2.40;;;0.80;;
17251;SDS011;8742;51.716;8.790;2023-03-14T07:45:08;1.20;;;0.97;;
17251;SDS011;8742;51.716;8.790;2023-03-14T07:47:35;0.67;;;0.27;;
17251;SDS011;8742;51.716;8.790;2023-03-14T07:50:04;2.43;;;1.37;;
17251;SDS011;8742;51.716;8.790;2023-03-14T07:52:34;0.60;;;0.50;;
17251;SDS011;8742;51.716;8.790;2023-03-14T07:55:01;1.90;;;1.20;;
17251;SDS011;8742;51.716;8.790;2023-03-14T07:57:28;2.80;;;0.47;;
17251;SDS011;8742;51.716;8.790;2023-03-14T07:59:55;1.27;;;0.20;;
17251;SDS011;8742;51.716;8.790;2023-03-14T08:02:21;0.63;;;0.20;;
17251;SDS011;8742;51.716;8.790;2023-03-14T08:04:49;0.50;;;0.37;;
17251;SDS011;8742;51.716;8.790;2023-03-14T08:07:18;0.57;;;0.40;;
17251;SDS011;8742;51.716;8.790;2023-03-14T08:09:44;0.47;;;0.33;;
17251;SDS011;8742;51.716;8.790;2023-03-14T08:12:16;1.50;;;0.43;;
17251;SDS011;8742;51.716;8.790;2023-03-14T08:14:43;0.93;;;0.27;;
17251;SDS011;8742;51.716;8.790;2023-03-14T08:17:15;8.93;;;6.97;;
17251;SDS011;8742;51.716;8.790;2023-03-14T08:19:42;1.97;;;1.47;;
17251;SDS011;8742;51.716;8.790;2023-03-14T08:22:08;2.67;;;1.37;;
17251;SDS011;8742;51.716;8.790;2023-03-14T08:24:37;1.07;;;0.40;;
17251;SDS011;8742;51.716;8.790;2023-03-14T08:27:03;1.20;;;1.13;;
17251;SDS011;8742;51.716;8.790;2023-03-14T08:29:30;1.57;;;1.47;;
17251;SDS011;8742;51.716;8.790;2023-03-14T08:31:57;1.60;;;0.87;;
17251;SDS011;8742;51.716;8.790;2023-03-14T08:34:24;0.70;;;0.70;;
17251;SDS011;8742;51.716;8.790;2023-03-14T08:36:51;0.90;;;0.80;;
17251;SDS011;8742;51.716;8.790;2023-03-14T08:39:20;0.77;;;0.57;;
17251;SDS011;8742;51.716;8.790;2023-03-14T08:41:50;1.83;;;0.40;;
17251;SDS011;8742;51.716;8.790;2023-03-14T08:44:17;1.00;;;1.00;;
17251;SDS011;8742;51.716;8.790;2023-03-14T08:46:44;0.80;;;0.70;;
17251;SDS011;8742;51.716;8.790;2023-03-14T08:49:10;0.80;;;0.70;;
17251;SDS011;8742;51.716;8.790;2023-03-14T08:51:38;0.73;;;0.30;;
17251;SDS011;8742;51.716;8.790;2023-03-14T08:54:04;0.23;;;0.20;;
17251;SDS011;8742;51.716;8.790;2023-03-14T08:56:31;0.30;;;0.30;;
17251;SDS011;8742;51.716;8.790;2023-03-14T08:58:59;0.20;;;0.20;;
17251;SDS011;8742;51.716;8.790;2023-03-14T09:01:26;0.10;;;0.10;;
17251;SDS011;8742;51.716;8.790;2023-03-14T09:03:53;0.10;;;0.10;;
17251;SDS011;8742;51.716;8.790;2023-03-14T09:06:20;0.27;;;0.27;;
17251;SDS011;8742;51.716;8.790;2023-03-14T09:08:47;1.87;;;1.27;;
17251;SDS011;8742;51.716;8.790;2023-03-14T09:11:14;0.40;;;0.40;;
17251;SDS011;8742;51.716;8.790;2023-03-14T09:13:42;0.97;;;0.50;;
17251;SDS011;8742;51.716;8.790;2023-03-14T09:16:10;0.53;;;0.40;;
17251;SDS011;8742;51.716;8.790;2023-03-14T09:18:37;1.53;;;1.23;;
17251;SDS011;8742;51.716;8.790;2023-03-14T09:21:04;3.10;;;2.80;;
17251;SDS011;8742;51.716;8.790;2023-03-14T09:23:31;2.13;;;0.53;;
17251;SDS011;8742;51.716;8.790;2023-03-14T09:25:59;3.33;;;2.20;;
17251;SDS011;8742;51.716;8.790;2023-03-14T09:28:26;3.60;;;0.70;;
17251;SDS011;8742;51.716;8.790;2023-03-14T09:30:53;0.70;;;0.70;;
17251;SDS011;8742;51.716;8.790;2023-03-14T09:33:22;0.40;;;0.40;;
17251;SDS011;8742;51.716;8.790;2023-03-14T09:35:48;1.93;;;1.63;;
17251;SDS011;8742;51.716;8.790;2023-03-14T09:38:15;2.67;;;2.07;;
17251;SDS011;8742;51.716;8.790;2023-03-14T09:40:42;2.77;;;2.37;;
17251;SDS011;8742;51.716;8.790;2023-03-14T09:43:09;2.70;;;2.50;;
17251;SDS011;8742;51.716;8.790;2023-03-14T09:45:38;1.57;;;0.67;;
17251;SDS011;8742;51.716;8.790;2023-03-14T09:48:08;2.13;;;1.93;;
17251;SDS011;8742;51.716;8.790;2023-03-14T09:50:44;0.23;;;0.20;;
17251;SDS011;8742;51.716;8.790;2023-03-14T09:53:14;0.27;;;0.27;;
17251;SDS011;8742;51.716;8.790;2023-03-14T09:55:43;0.30;;;0.30;;
17251;SDS011;8742;51.716;8.790;2023-03-14T09:58:12;0.93;;;0.70;;
17251;SDS011;8742;51.716;8.790;2023-03-14T10:00:42;0.40;;;0.40;;
17251;SDS011;8742;51.716;8.790;2023-03-14T10:03:18;0.30;;;0.30;;
17251;SDS011;8742;51.716;8.790;2023-03-14T10:05:50;0.20;;;0.10;;
17251;SDS011;8742;51.716;8.790;2023-03-14T10:08:17;0.30;;;0.30;;
17251;SDS011;8742;51.716;8.790;2023-03-14T10:10:44;0.53;;;0.53;;
17251;SDS011;8742;51.716;8.790;2023-03-14T10:13:14;0.93;;;0.93;;
17251;SDS011;8742;51.716;8.790;2023-03-14T10:15:43;0.90;;;0.40;;
17251;SDS011;8742;51.716;8.790;2023-03-14T10:18:14;1.80;;;1.70;;
17251;SDS011;8742;51.716;8.790;2023-03-14T10:20:42;0.50;;;0.20;;
17251;SDS011;8742;51.716;8.790;2023-03-14T10:23:22;0.40;;;0.40;;
17251;SDS011;8742;51.716;8.790;2023-03-14T10:26:00;0.53;;;0.53;;
17251;SDS011;8742;51.716;8.790;2023-03-14T10:28:32;1.10;;;0.33;;
17251;SDS011;8742;51.716;8.790;2023-03-14T10:31:00;1.03;;;0.77;;
17251;SDS011;8742;51.716;8.790;2023-03-14T10:33:27;0.87;;;0.60;;
17251;SDS011;8742;51.716;8.790;2023-03-14T10:35:57;1.30;;;0.97;;
17251;SDS011;8742;51.716;8.790;2023-03-14T10:38:27;0.50;;;0.50;;
17251;SDS011;8742;51.716;8.790;2023-03-14T10:40:56;0.50;;;0.50;;
17251;SDS011;8742;51.716;8.790;2023-03-14T10:43:25;0.97;;;0.97;;
17251;SDS011;8742;51.716;8.790;2023-03-14T10:45:54;0.30;;;0.30;;
17251;SDS011;8742;51.716;8.790;2023-03-14T10:48:24;0.43;;;0.33;;
17251;SDS011;8742;51.716;8.790;2023-03-14T10:50:57;0.30;;;0.30;;
17251;SDS011;8742;51.716;8.790;2023-03-14T10:53:30;0.47;;;0.40;;
17251;SDS011;8742;51.716;8.790;2023-03-14T10:56:02;0.80;;;0.40;;
17251;SDS011;8742;51.716;8.790;2023-03-14T10:58:29;2.03;;;0.63;;
17251;SDS011;8742;51.716;8.790;2023-03-14T11:01:02;0.60;;;0.60;;
17251;SDS011;8742;51.716;8.790;2023-03-14T11:03:37;0.87;;;0.87;;
17251;SDS011;8742;51.716;8.790;2023-03-14T11:06:10;1.67;;;0.70;;
17251;SDS011;8742;51.716;8.790;2023-03-14T11:08:44;2.77;;;1.73;;
17251;SDS011;8742;51.716;8.790;2023-03-14T11:11:19;2.20;;;0.70;;
17251;SDS011;8742;51.716;8.790;2023-03-14T11:13:55;1.67;;;0.87;;
17251;SDS011;8742;51.716;8.790;2023-03-14T11:16:31;1.33;;;0.63;;
17251;SDS011;8742;51.716;8.790;2023-03-14T11:19:14;0.70;;;0.40;;
17251;SDS011;8742;51.716;8.790;2023-03-14T11:21:55;0.53;;;0.53;;
17251;SDS011;8742;51.716;8.790;2023-03-14T11:24:35;0.50;;;0.40;;
17251;SDS011;8742;51.716;8.790;2023-03-14T11:27:17;3.90;;;0.70;;
17251;SDS011;8742;51.716;8.790;2023-03-14T11:29:50;1.07;;;0.40;;
17251;SDS011;8742;51.716;8.790;2023-03-14T11:32:24;0.70;;;0.40;;
17251;SDS011;8742;51.716;8.790;2023-03-14T11:35:03;0.47;;;0.47;;
17251;SDS011;8742;51.716;8.790;2023-03-14T11:37:35;1.17;;;0.83;;
17251;SDS011;8742;51.716;8.790;2023-03-14T11:40:12;1.63;;;0.50;;
17251;SDS011;8742;51.716;8.790;2023-03-14T11:42:41;0.50;;;0.50;;
17251;SDS011;8742;51.716;8.790;2023-03-14T11:45:13;1.60;;;0.63;;
17251;SDS011;8742;51.716;8.790;2023-03-14T11:47:44;2.73;;;0.50;;
17251;SDS011;8742;51.716;8.790;2023-03-14T11:50:18;1.63;;;0.90;;
17251;SDS011;8742;51.716;8.790;2023-03-14T11:52:50;3.30;;;0.73;;
17251;SDS011;8742;51.716;8.790;2023-03-14T11:55:22;6.03;;;0.83;;
17251;SDS011;8742;51.716;8.790;2023-03-14T11:57:55;1.90;;;1.07;;
17251;SDS011;8742;51.716;8.790;2023-03-14T12:00:26;1.17;;;0.90;;
17251;SDS011;8742;51.716;8.790;2023-03-14T12:02:55;1.07;;;0.70;;
17251;SDS011;8742;51.716;8.790;2023-03-14T12:05:46;0.70;;;0.60;;
17251;SDS011;8742;51.716;8.790;2023-03-14T12:11:13;0.43;;;0.37;;
17251;SDS011;8742;51.716;8.790;2023-03-14T12:13:47;0.97;;;0.70;;
17251;SDS011;8742;51.716;8.790;2023-03-14T12:16:22;1.23;;;0.20;;
17251;SDS011;8742;51.716;8.790;2023-03-14T12:24:59;1.97;;;0.40;;
17251;SDS011;8742;51.716;8.790;2023-03-14T12:27:42;2.33;;;0.40;;
17251;SDS011;8742;51.716;8.790;2023-03-14T12:30:23;0.40;;;0.20;;
17251;SDS011;8742;51.716;8.790;2023-03-14T12:36:02;0.20;;;0.20;;
17251;SDS011;8742;51.716;8.790;2023-03-14T12:39:00;0.53;;;0.43;;
17251;SDS011;8742;51.716;8.790;2023-03-14T12:41:40;0.40;;;0.37;;
17251;SDS011;8742;51.716;8.790;2023-03-14T12:50:07;1.50;;;0.50;;
17251;SDS011;8742;51.716;8.790;2023-03-14T12:52:41;2.83;;;0.70;;
17251;SDS011;8742;51.716;8.790;2023-03-14T12:55:16;2.77;;;0.80;;
17251;SDS011;8742;51.716;8.790;2023-03-14T12:57:50;4.53;;;1.03;;
17251;SDS011;8742;51.716;8.790;2023-03-14T13:00:29;1.33;;;0.93;;
17251;SDS011;8742;51.716;8.790;2023-03-14T13:03:00;5.27;;;1.23;;
17251;SDS011;8742;51.716;8.790;2023-03-14T13:05:40;3.07;;;1.27;;
17251;SDS011;8742;51.716;8.790;2023-03-14T13:08:31;6.43;;;1.30;;
17251;SDS011;8742;51.716;8.790;2023-03-14T13:11:01;4.73;;;1.27;;
17251;SDS011;8742;51.716;8.790;2023-03-14T13:13:31;6.57;;;1.23;;
17251;SDS011;8742;51.716;8.790;2023-03-14T13:16:03;4.60;;;1.83;;
17251;SDS011;8742;51.716;8.790;2023-03-14T13:18:33;3.87;;;1.53;;
17251;SDS011;8742;51.716;8.790;2023-03-14T13:21:02;7.63;;;1.57;;
17251;SDS011;8742;51.716;8.790;2023-03-14T13:23:34;4.97;;;1.40;;
17251;SDS011;8742;51.716;8.790;2023-03-14T13:26:03;5.77;;;1.40;;
17251;SDS011;8742;51.716;8.790;2023-03-14T13:28:37;5.23;;;1.80;;
17251;SDS011;8742;51.716;8.790;2023-03-14T13:31:05;7.00;;;1.73;;
17251;SDS011;8742;51.716;8.790;2023-03-14T13:33:42;4.37;;;1.77;;
17251;SDS011;8742;51.716;8.790;2023-03-14T13:36:10;9.43;;;1.80;;
17251;SDS011;8742;51.716;8.790;2023-03-14T13:38:56;8.57;;;1.50;;
17251;SDS011;8742;51.716;8.790;2023-03-14T13:41:24;6.60;;;1.53;;
17251;SDS011;8742;51.716;8.790;2023-03-14T13:43:52;7.37;;;1.60;;
17251;SDS011;8742;51.716;8.790;2023-03-14T13:46:28;8.20;;;1.80;;
17251;SDS011;8742;51.716;8.790;2023-03-14T13:48:57;14.03;;;2.17;;
17251;SDS011;8742;51.716;8.790;2023-03-14T13:51:25;6.93;;;2.03;;
17251;SDS011;8742;51.716;8.790;2023-03-14T13:53:56;5.27;;;1.53;;
17251;SDS011;8742;51.716;8.790;2023-03-14T13:56:24;11.00;;;2.10;;
17251;SDS011;8742;51.716;8.790;2023-03-14T13:58:52;12.83;;;2.30;;
17251;SDS011;8742;51.716;8.790;2023-03-14T14:01:20;14.00;;;2.10;;
17251;SDS011;8742;51.716;8.790;2023-03-14T14:03:51;6.27;;;1.90;;
17251;SDS011;8742;51.716;8.790;2023-03-14T14:06:26;7.57;;;2.13;;
17251;SDS011;8742;51.716;8.790;2023-03-14T14:08:56;10.13;;;2.30;;
17251;SDS011;8742;51.716;8.790;2023-03-14T14:11:30;8.13;;;2.20;;
17251;SDS011;8742;51.716;8.790;2023-03-14T14:14:04;12.27;;;2.80;;
17251;SDS011;8742;51.716;8.790;2023-03-14T14:16:35;17.17;;;2.80;;
17251;SDS011;8742;51.716;8.790;2023-03-14T14:19:04;11.07;;;3.17;;
17251;SDS011;8742;51.716;8.790;2023-03-14T14:21:31;13.90;;;2.27;;
17251;SDS011;8742;51.716;8.790;2023-03-14T14:23:58;10.70;;;2.80;;
17251;SDS011;8742;51.716;8.790;2023-03-14T14:26:26;10.80;;;2.20;;
17251;SDS011;8742;51.716;8.790;2023-03-14T14:29:00;19.23;;;3.10;;
17251;SDS011;8742;51.716;8.790;2023-03-14T14:31:29;11.53;;;2.53;;
17251;SDS011;8742;51.716;8.790;2023-03-14T14:33:56;13.03;;;2.77;;
17251;SDS011;8742;51.716;8.790;2023-03-14T14:36:26;17.33;;;3.10;;
17251;SDS011;8742;51.716;8.790;2023-03-14T14:38:59;16.00;;;2.90;;
17251;SDS011;8742;51.716;8.790;2023-03-14T14:41:30;11.07;;;3.20;;
17251;SDS011;8742;51.716;8.790;2023-03-14T14:43:59;12.73;;;3.13;;
17251;SDS011;8742;51.716;8.790;2023-03-14T14:46:29;12.37;;;2.77;;
17251;SDS011;8742;51.716;8.790;2023-03-14T14:49:01;16.80;;;2.87;;
17251;SDS011;8742;51.716;8.790;2023-03-14T14:51:38;15.60;;;3.57;;
17251;SDS011;8742;51.716;8.790;2023-03-14T14:54:12;12.60;;;3.23;;
17251;SDS011;8742;51.716;8.790;2023-03-14T14:56:44;15.67;;;3.10;;
17251;SDS011;8742;51.716;8.790;2023-03-14T14:59:21;15.27;;;3.07;;
17251;SDS011;8742;51.716;8.790;2023-03-14T15:01:49;18.17;;;3.60;;
17251;SDS011;8742;51.716;8.790;2023-03-14T15:04:20;22.20;;;3.50;;
17251;SDS011;8742;51.716;8.790;2023-03-14T15:06:49;10.53;;;2.80;;
17251;SDS011;8742;51.716;8.790;2023-03-14T15:09:17;15.17;;;3.50;;
17251;SDS011;8742;51.716;8.790;2023-03-14T15:11:44;16.13;;;3.33;;
17251;SDS011;8742;51.716;8.790;2023-03-14T15:14:12;17.83;;;2.90;;
17251;SDS011;8742;51.716;8.790;2023-03-14T15:16:39;13.60;;;3.13;;
17251;SDS011;8742;51.716;8.790;2023-03-14T15:19:10;12.57;;;3.07;;
17251;SDS011;8742;51.716;8.790;2023-03-14T15:21:44;13.77;;;3.07;;
17251;SDS011;8742;51.716;8.790;2023-03-14T15:24:13;20.83;;;3.10;;
17251;SDS011;8742;51.716;8.790;2023-03-14T15:26:39;9.77;;;3.20;;
17251;SDS011;8742;51.716;8.790;2023-03-14T15:29:08;16.10;;;2.50;;
17251;SDS011;8742;51.716;8.790;2023-03-14T15:31:37;14.10;;;2.73;;
17251;SDS011;8742;51.716;8.790;2023-03-14T15:34:04;7.50;;;2.50;;